.
WxDataArchive / Data Records for 2006-03-29
2006-03-28 March 2006 2006-03-30

Data Records for Wednesday, 29 March 2006

Time	Temp	Chill	HIndex	Humid	Dewpt	 Wind 	HiWind	WindDir	Rain 	Barom 
-----	----	-----	------	-----	-----	------	------	-------	-----	----- 
00:00	42.8	42.8	42.8	86	38.9	0	0	---	0.00	30.197 
00:05	42.6	42.6	42.6	86	38.7	0	0	---	0.00	30.197 
00:10	42.6	42.6	42.6	86	38.7	0	1	90	0.00	30.197 
00:15	42.6	42.6	42.6	87	39.0	0	0	---	0.00	30.196 
00:20	42.5	42.5	42.5	87	38.9	0	0	---	0.00	30.196 
00:25	42.5	42.5	42.5	87	38.9	0	0	---	0.00	30.196 
00:30	42.5	42.5	42.5	87	38.9	0	0	---	0.00	30.196 
00:35	42.5	42.5	42.5	87	38.9	0	0	---	0.00	30.196 
00:40	42.5	42.5	42.5	87	38.9	0	0	---	0.00	30.196 
00:45	42.3	42.3	42.3	87	38.7	0	0	---	0.00	30.198 
00:50	42.3	42.3	42.3	87	38.7	0	0	---	0.00	30.198 
00:55	42.3	42.3	42.3	87	38.7	0	0	---	0.00	30.198 
01:00	42.2	42.2	42.2	87	38.6	0	0	---	0.00	30.198 
01:05	42.2	42.2	42.2	88	38.9	0	0	---	0.00	30.198 
01:10	42.2	42.2	42.2	88	38.9	0	0	---	0.00	30.198 
01:15	42.2	42.2	42.2	88	38.9	0	0	---	0.00	30.199 
01:20	42.1	42.1	42.1	88	38.8	0	0	---	0.00	30.199 
01:25	42.1	42.1	42.1	88	38.8	0	0	---	0.00	30.199 
01:30	42.1	42.1	42.1	88	38.8	0	0	---	0.00	30.199 
01:35	41.9	41.9	41.9	88	38.6	0	0	---	0.00	30.199 
01:40	41.9	41.9	41.9	88	38.6	0	0	---	0.00	30.199 
01:45	41.9	41.9	41.9	88	38.6	0	0	---	0.00	30.199 
01:50	41.8	41.8	41.8	88	38.5	0	0	---	0.00	30.199 
01:55	41.8	41.8	41.8	88	38.5	0	0	---	0.00	30.199 
02:00	41.8	41.8	41.8	88	38.5	0	0	---	0.00	30.197 
02:05	41.6	41.6	41.6	88	38.3	0	0	---	0.00	30.197 
02:10	41.6	41.6	41.6	88	38.3	0	0	---	0.00	30.197 
02:15	41.6	41.6	41.6	88	38.3	0	0	---	0.00	30.197 
02:20	41.6	41.6	41.6	88	38.3	0	0	---	0.00	30.197 
02:25	41.5	41.5	41.5	88	38.2	0	0	---	0.00	30.197 
02:30	41.5	41.5	41.5	88	38.2	0	0	---	0.00	30.199 
02:35	41.5	41.5	41.5	89	38.5	0	0	---	0.00	30.199 
02:40	41.6	41.6	41.6	89	38.6	0	0	---	0.00	30.199 
02:45	41.6	41.6	41.6	89	38.6	0	1	90	0.00	30.199 
02:50	41.6	41.6	41.6	89	38.6	0	0	---	0.00	30.199 
02:55	41.8	41.8	41.8	89	38.8	0	0	---	0.00	30.199 
03:00	41.8	41.8	41.8	89	38.8	0	0	---	0.00	30.199 
03:05	41.8	41.8	41.8	88	38.5	0	0	---	0.00	30.199 
03:10	41.8	41.8	41.8	88	38.5	0	1	90	0.00	30.199 
03:15	41.8	41.8	41.8	88	38.5	0	1	90	0.00	30.202 
03:20	41.8	41.8	41.8	88	38.5	0	0	---	0.00	30.202 
03:25	41.8	41.8	41.8	88	38.5	0	0	---	0.00	30.202 
03:30	41.8	41.8	41.8	88	38.5	0	0	---	0.00	30.204 
03:35	41.6	41.6	41.6	88	38.3	0	0	---	0.00	30.204 
03:40	41.6	41.6	41.6	87	38.0	0	0	---	0.00	30.204 
03:45	41.6	41.6	41.6	87	38.0	0	0	---	0.00	30.205 
03:50	41.6	41.6	41.6	87	38.0	0	1	90	0.00	30.205 
03:55	41.6	41.6	41.6	87	38.0	0	0	---	0.00	30.205 
04:00	41.6	41.6	41.6	87	38.0	0	0	---	0.00	30.207 
04:05	41.6	41.6	41.6	87	38.0	0	0	---	0.00	30.207 
04:10	41.5	41.5	41.5	87	37.9	0	0	---	0.00	30.207 
04:15	41.5	41.5	41.5	87	37.9	0	0	---	0.00	30.212 
04:20	41.5	41.5	41.5	87	37.9	0	0	---	0.00	30.212 
04:25	41.5	41.5	41.5	87	37.9	0	0	---	0.00	30.212 
04:30	41.3	41.3	41.3	87	37.7	0	0	---	0.00	30.213 
04:35	41.3	41.3	41.3	87	37.7	0	0	---	0.00	30.213 
04:40	41.3	41.3	41.3	87	37.7	0	0	---	0.00	30.213 
04:45	41.3	41.3	41.3	87	37.7	0	0	---	0.00	30.215 
04:50	41.3	41.3	41.3	87	37.7	0	0	---	0.00	30.215 
04:55	41.3	41.3	41.3	87	37.7	0	0	---	0.00	30.215 
05:00	41.2	41.2	41.2	87	37.6	0	0	---	0.00	30.223 
05:05	41.2	41.2	41.2	87	37.6	0	0	---	0.00	30.223 
05:10	41.2	41.2	41.2	87	37.6	0	0	---	0.00	30.223 
05:15	41.2	41.2	41.2	87	37.6	0	0	---	0.00	30.226 
05:20	41.2	41.2	41.2	87	37.6	0	0	---	0.00	30.226 
05:25	41.2	41.2	41.2	87	37.6	0	0	---	0.00	30.226 
05:30	41.2	41.2	41.2	87	37.6	0	0	---	0.00	30.230 
05:35	41.2	41.2	41.2	87	37.6	0	0	---	0.00	30.230 
05:40	41.2	41.2	41.2	86	37.3	0	0	---	0.00	30.230 
05:45	41.2	41.2	41.2	86	37.3	0	0	---	0.00	30.232 
05:50	41.2	41.2	41.2	86	37.3	0	0	---	0.00	30.232 
05:55	41.2	41.2	41.2	86	37.3	0	0	---	0.00	30.232 
06:00	41.2	41.2	41.2	86	37.3	0	0	---	0.00	30.234 
06:05	41.2	41.2	41.2	86	37.3	0	0	---	0.00	30.234 
06:10	41.2	41.2	41.2	86	37.3	0	0	---	0.00	30.234 
06:15	41.2	41.2	41.2	86	37.3	0	0	---	0.00	30.237 
06:20	41.2	41.2	41.2	87	37.6	0	0	---	0.00	30.237 
06:25	41.1	41.1	41.1	87	37.5	0	0	---	0.00	30.237 
06:30	41.1	41.1	41.1	86	37.2	0	0	---	0.00	30.245 
06:35	41.1	41.1	41.1	86	37.2	0	0	---	0.00	30.245 
06:40	41.1	41.1	41.1	86	37.2	0	1	90	0.00	30.245 
06:45	41.2	41.2	41.2	86	37.3	0	1	90	0.00	30.247 
06:50	41.3	41.3	41.3	85	37.1	0	1	90	0.00	30.247 
06:55	41.3	41.3	41.3	85	37.1	0	1	90	0.00	30.247 
07:00	41.5	41.5	41.5	85	37.3	0	1	90	0.00	30.251 
07:05	41.5	41.5	41.5	85	37.3	0	1	90	0.00	30.251 
07:10	41.5	41.5	41.5	85	37.3	0	1	90	0.00	30.251 
07:15	41.5	41.5	41.5	85	37.3	0	0	---	0.00	30.261 
07:20	41.5	41.5	41.5	84	37.0	0	0	---	0.00	30.261 
07:25	41.6	41.6	41.6	84	37.1	0	1	90	0.00	30.261 
07:30	41.6	41.6	41.6	84	37.1	0	0	---	0.00	30.264 
07:35	41.8	41.8	41.8	84	37.3	0	1	90	0.00	30.264 
07:40	41.8	41.8	41.8	84	37.3	0	1	90	0.00	30.264 
07:45	41.9	41.9	41.9	84	37.4	0	1	90	0.00	30.272 
07:50	41.9	41.9	41.9	83	37.1	0	0	---	0.00	30.272 
07:55	42.1	42.1	42.1	83	37.3	0	1	90	0.00	30.272 
08:00	42.2	42.2	42.2	83	37.4	1	2	90	0.00	30.276 
08:05	42.2	42.2	42.2	82	37.1	1	2	90	0.00	30.276 
08:10	42.3	42.3	42.3	82	37.2	0	2	90	0.00	30.276 
08:15	42.3	42.3	42.3	82	37.2	0	1	90	0.00	30.279 
08:20	42.5	42.5	42.5	81	37.1	0	1	90	0.00	30.279 
08:25	42.5	42.5	42.5	80	36.8	0	1	90	0.00	30.279 
08:30	42.6	42.6	42.6	80	36.9	0	1	90	0.00	30.280 
08:35	42.8	42.8	42.8	79	36.7	0	2	90	0.00	30.280 
08:40	42.8	42.8	42.8	78	36.4	1	2	90	0.00	30.280 
08:45	42.9	42.9	42.9	79	36.8	0	1	90	0.00	30.288 
08:50	43.1	43.1	43.1	78	36.7	0	1	90	0.00	30.288 
08:55	43.2	43.2	43.2	77	36.5	0	2	90	0.00	30.288 
09:00	43.3	43.3	43.3	76	36.3	0	2	90	0.00	30.292 
09:05	43.3	43.3	43.3	76	36.3	1	2	90	0.00	30.292 
09:10	43.5	43.5	43.5	76	36.4	0	2	90	0.00	30.292 
09:15	43.6	43.6	43.6	76	36.5	1	2	90	0.00	30.293 
09:20	43.9	43.9	43.9	76	36.8	1	2	90	0.00	30.293 
09:25	43.9	43.9	43.9	75	36.5	1	2	90	0.00	30.293 
09:30	44.1	44.1	44.1	75	36.7	2	3	90	0.00	30.295 
09:35	44.1	44.1	44.1	75	36.7	1	2	90	0.00	30.295 
09:40	44.1	44.1	44.1	74	36.4	2	3	90	0.00	30.295 
09:45	44.2	44.2	44.2	76	37.1	1	3	90	0.00	30.302 
09:50	44.3	44.3	44.3	76	37.2	1	2	90	0.00	30.302 
09:55	44.5	44.5	44.5	76	37.4	2	4	90	0.00	30.302 
10:00	44.5	44.5	44.5	75	37.1	2	3	90	0.00	30.304 
10:05	44.5	44.5	44.5	75	37.1	2	4	112	0.00	30.304 
10:10	44.6	44.6	44.6	75	37.2	1	3	112	0.00	30.304 
10:15	44.6	44.6	44.6	75	37.2	1	3	112	0.00	30.301 
10:20	44.6	44.6	44.6	74	36.8	2	3	90	0.00	30.301 
10:25	44.8	44.8	44.8	75	37.4	1	3	90	0.00	30.301 
10:30	44.8	44.8	44.8	75	37.4	2	3	90	0.00	30.300 
10:35	44.9	44.9	44.9	75	37.5	1	3	90	0.00	30.300 
10:40	45.2	45.2	45.2	75	37.8	1	3	90	0.00	30.300 
10:45	45.2	45.2	45.2	76	38.1	2	3	90	0.00	30.302 
10:50	45.5	45.5	45.5	75	38.0	1	2	90	0.00	30.302 
10:55	45.8	45.8	45.8	75	38.3	1	2	158	0.00	30.302 
11:00	46.2	46.2	46.2	74	38.4	0	2	135	0.00	30.296 
11:05	46.7	46.7	46.7	73	38.5	1	4	135	0.00	30.296 
11:10	47.1	47.1	47.1	73	38.9	3	5	90	0.00	30.296 
11:15	47.1	47.1	47.1	73	38.9	2	4	90	0.00	30.295 
11:20	47.3	47.3	47.3	73	39.1	2	5	112	0.00	30.295 
11:25	47.3	47.3	47.3	72	38.7	2	3	112	0.00	30.295 
11:30	47.6	47.6	47.6	73	39.4	1	2	90	0.00	30.293 
11:35	48.0	48.0	48.0	70	38.7	2	4	90	0.00	30.293 
11:40	48.2	48.2	48.2	70	38.9	3	5	112	0.00	30.293 
11:45	48.6	48.6	48.6	73	40.3	2	4	90	0.00	30.292 
11:50	49.1	49.1	49.1	72	40.5	1	3	112	0.00	30.292 
11:55	49.2	49.2	49.2	72	40.6	2	5	112	0.00	30.292 
12:00	49.4	49.4	49.4	72	40.8	1	4	112	0.00	30.293 
12:05	49.6	49.6	49.6	71	40.6	1	3	112	0.00	30.293 
12:10	49.6	49.6	49.6	72	40.9	1	4	90	0.00	30.293 
12:15	49.6	49.6	49.6	70	40.2	2	4	112	0.00	30.293 
12:20	49.6	49.6	49.6	70	40.2	2	4	112	0.00	30.293 
12:25	49.9	49.9	49.9	70	40.5	1	3	90	0.00	30.293 
12:30	50.2	50.2	50.2	71	41.2	2	3	112	0.00	30.288 
12:35	50.1	50.1	50.1	72	41.4	1	4	112	0.00	30.288 
12:40	50.4	50.4	50.4	70	41.0	1	4	112	0.00	30.288 
12:45	50.5	50.5	50.5	71	41.5	2	5	90	0.00	30.286 
12:50	51.0	51.0	51.0	68	40.8	1	4	112	0.00	30.286 
12:55	51.0	51.0	51.0	68	40.8	1	4	112	0.00	30.286 
13:00	51.3	51.3	51.3	68	41.1	1	4	90	0.00	30.281 
13:05	51.0	51.0	51.0	67	40.4	3	6	90	0.00	30.281 
13:10	51.0	51.0	51.0	67	40.4	1	4	90	0.00	30.281 
13:15	51.1	51.1	51.1	67	40.5	2	5	112	0.00	30.277 
13:20	51.3	51.3	51.3	66	40.3	2	6	112	0.00	30.277 
13:25	51.4	51.4	51.4	66	40.4	2	4	90	0.00	30.277 
13:30	51.9	51.9	51.9	69	42.1	1	3	202	0.00	30.269 
13:35	52.2	52.2	52.2	64	40.4	2	6	112	0.00	30.269 
13:40	52.3	52.3	52.3	65	40.9	1	3	90	0.00	30.269 
13:45	52.6	52.6	52.6	64	40.8	1	4	90	0.00	30.268 
13:50	52.5	52.5	52.5	64	40.7	1	4	90	0.00	30.268 
13:55	52.3	52.3	52.3	63	40.1	2	4	90	0.00	30.268 
14:00	52.2	52.2	52.2	63	40.0	1	4	112	0.00	30.266 
14:05	52.0	52.0	52.0	64	40.2	1	3	90	0.00	30.266 
14:10	51.9	51.9	51.9	65	40.5	1	3	90	0.00	30.266 
14:15	51.7	51.7	51.7	63	39.5	1	4	90	0.00	30.264 
14:20	51.6	51.6	51.6	63	39.4	1	3	135	0.00	30.264 
14:25	51.6	51.6	51.6	63	39.4	1	4	135	0.00	30.264 
14:30	51.6	51.6	51.6	64	39.8	1	4	112	0.00	30.255 
14:35	51.4	51.4	51.4	63	39.2	1	3	112	0.00	30.255 
14:40	51.4	51.4	51.4	65	40.0	1	3	112	0.00	30.255 
14:45	51.3	51.3	51.3	63	39.1	1	2	68	0.00	30.256 
14:50	51.3	51.3	51.3	64	39.5	1	3	135	0.00	30.256 
14:55	51.1	51.1	51.1	64	39.4	1	2	135	0.00	30.256 
15:00	51.1	51.1	51.1	64	39.4	1	3	90	0.00	30.255 
15:05	51.0	51.0	51.0	64	39.3	1	3	68	0.00	30.255 
15:10	51.0	51.0	51.0	64	39.3	1	4	112	0.00	30.255 
15:15	51.0	51.0	51.0	64	39.3	1	2	112	0.00	30.256 
15:20	50.8	50.8	50.8	64	39.1	1	3	112	0.00	30.256 
15:25	50.8	50.8	50.8	65	39.5	1	4	90	0.00	30.256 
15:30	50.7	50.7	50.7	65	39.4	0	2	112	0.00	30.255 
15:35	50.7	50.7	50.7	66	39.8	1	3	112	0.00	30.255 
15:40	50.7	50.7	50.7	67	40.1	1	3	90	0.00	30.255 
15:45	50.5	50.5	50.5	67	40.0	1	4	112	0.00	30.251 
15:50	50.4	50.4	50.4	68	40.2	1	3	112	0.00	30.251 
15:55	50.2	50.2	50.2	69	40.4	1	2	158	0.00	30.251 
16:00	50.2	50.2	50.2	69	40.4	1	2	158	0.00	30.240 
16:05	50.2	50.2	50.2	69	40.4	0	2	135	0.00	30.240 
16:10	50.4	50.4	50.4	68	40.2	0	2	135	0.00	30.240 
16:15	50.5	50.5	50.5	68	40.3	0	2	112	0.00	30.239 
16:20	50.5	50.5	50.5	68	40.3	1	2	112	0.00	30.239 
16:25	50.8	50.8	50.8	68	40.6	0	2	112	0.00	30.239 
16:30	51.0	51.0	51.0	66	40.0	1	2	90	0.00	30.237 
16:35	51.0	51.0	51.0	67	40.4	0	2	90	0.00	30.237 
16:40	51.1	51.1	51.1	65	39.7	0	2	135	0.00	30.237 
16:45	51.3	51.3	51.3	65	39.9	0	2	135	0.00	30.230 
16:50	51.6	51.6	51.6	64	39.8	1	3	90	0.00	30.230 
16:55	51.6	51.6	51.6	65	40.2	1	3	135	0.00	30.230 
17:00	51.7	51.7	51.7	64	39.9	1	4	112	0.00	30.223 
17:05	51.6	51.6	51.6	65	40.2	1	3	135	0.00	30.223 
17:10	51.6	51.6	51.6	65	40.2	1	3	135	0.00	30.223 
17:15	51.4	51.4	51.4	63	39.2	1	4	112	0.00	30.221 
17:20	51.4	51.4	51.4	65	40.0	1	2	112	0.00	30.221 
17:25	51.4	51.4	51.4	65	40.0	1	2	112	0.00	30.221 
17:30	51.4	51.4	51.4	65	40.0	1	3	112	0.00	30.220 
17:35	51.4	51.4	51.4	67	40.8	1	3	22	0.00	30.220 
17:40	51.3	51.3	51.3	67	40.7	1	3	90	0.00	30.220 
17:45	51.1	51.1	51.1	67	40.5	1	3	90	0.00	30.220 
17:50	51.0	51.0	51.0	67	40.4	1	3	90	0.00	30.220 
17:55	50.8	50.8	50.8	66	39.9	1	4	112	0.00	30.220 
18:00	50.7	50.7	50.7	68	40.5	1	3	112	0.00	30.218 
18:05	50.5	50.5	50.5	68	40.3	1	3	112	0.00	30.218 
18:10	50.4	50.4	50.4	69	40.6	1	4	90	0.00	30.218 
18:15	50.2	50.2	50.2	69	40.4	0	2	90	0.00	30.222 
18:20	50.1	50.1	50.1	70	40.7	0	1	90	0.00	30.222 
18:25	49.9	49.9	49.9	69	40.1	0	2	90	0.00	30.222 
18:30	49.9	49.9	49.9	70	40.5	0	1	90	0.00	30.221 
18:35	49.8	49.8	49.8	70	40.4	0	1	90	0.00	30.221 
18:40	49.8	49.8	49.8	70	40.4	0	2	90	0.00	30.221 
18:45	49.6	49.6	49.6	70	40.2	1	3	90	0.00	30.220 
18:50	49.6	49.6	49.6	70	40.2	0	1	135	0.00	30.220 
18:55	49.5	49.5	49.5	70	40.1	0	1	135	0.00	30.220 
19:00	49.5	49.5	49.5	70	40.1	0	1	135	0.00	30.218 
19:05	49.4	49.4	49.4	70	40.0	0	1	135	0.00	30.218 
19:10	49.2	49.2	49.2	71	40.2	0	1	135	0.00	30.218 
19:15	49.2	49.2	49.2	71	40.2	0	1	135	0.00	30.223 
19:20	49.1	49.1	49.1	71	40.1	0	1	135	0.00	30.223 
19:25	49.1	49.1	49.1	71	40.1	0	1	135	0.00	30.223 
19:30	48.9	48.9	48.9	72	40.3	0	1	135	0.00	30.224 
19:35	48.9	48.9	48.9	72	40.3	0	1	135	0.00	30.224 
19:40	48.8	48.8	48.8	67	38.3	1	3	112	0.00	30.224 
19:45	49.1	49.1	49.1	67	38.6	1	2	112	0.00	30.226 
19:50	49.2	49.2	49.2	67	38.7	0	2	112	0.00	30.226 
19:55	49.2	49.2	49.2	68	39.1	0	1	112	0.00	30.226 
20:00	49.2	49.2	49.2	67	38.7	0	1	112	0.00	30.226 
20:05	49.2	49.2	49.2	68	39.1	0	1	112	0.00	30.226 
20:10	49.1	49.1	49.1	69	39.4	0	1	112	0.00	30.226 
20:15	48.9	48.9	48.9	70	39.6	0	1	112	0.00	30.223 
20:20	48.8	48.8	48.8	71	39.8	0	0	---	0.00	30.223 
20:25	48.5	48.5	48.5	71	39.5	0	0	---	0.00	30.223 
20:30	48.3	48.3	48.3	71	39.3	0	0	---	0.00	30.227 
20:35	48.0	48.0	48.0	72	39.4	0	0	---	0.00	30.227 
20:40	47.9	47.9	47.9	72	39.3	0	0	---	0.00	30.227 
20:45	47.7	47.7	47.7	72	39.1	0	0	---	0.00	30.228 
20:50	47.6	47.6	47.6	73	39.4	0	0	---	0.00	30.228 
20:55	47.4	47.4	47.4	73	39.2	0	1	112	0.00	30.228 
21:00	47.3	47.3	47.3	72	38.7	0	1	112	0.00	30.226 
21:05	47.1	47.1	47.1	73	38.9	0	1	112	0.00	30.226 
21:10	46.8	46.8	46.8	72	38.3	0	0	---	0.00	30.226 
21:15	46.4	46.4	46.4	73	38.2	0	0	---	0.00	30.224 
21:20	46.0	46.0	46.0	73	37.8	0	0	---	0.00	30.224 
21:25	45.5	45.5	45.5	74	37.7	0	0	---	0.00	30.224 
21:30	44.8	44.8	44.8	75	37.4	0	0	---	0.00	30.227 
21:35	44.2	44.2	44.2	77	37.5	0	0	---	0.00	30.227 
21:40	43.8	43.8	43.8	77	37.1	0	0	---	0.00	30.227 
21:45	43.2	43.2	43.2	79	37.1	0	0	---	0.00	30.229 
21:50	42.6	42.6	42.6	79	36.6	0	0	---	0.00	30.229 
21:55	42.2	42.2	42.2	80	36.5	0	0	---	0.00	30.229 
22:00	41.6	41.6	41.6	81	36.2	0	0	---	0.00	30.228 
22:05	41.2	41.2	41.2	82	36.1	0	0	---	0.00	30.228 
22:10	40.6	40.6	40.6	84	36.2	0	0	---	0.00	30.228 
22:15	40.3	40.3	40.3	84	35.9	0	0	---	0.00	30.225 
22:20	39.9	39.9	39.9	85	35.8	0	0	---	0.00	30.225 
22:25	39.6	39.6	39.6	85	35.5	0	0	---	0.00	30.225 
22:30	39.3	39.3	39.3	85	35.2	0	1	112	0.00	30.221 
22:35	39.2	39.2	39.2	87	35.7	0	1	112	0.00	30.221 
22:40	39.1	39.1	39.1	87	35.6	0	0	---	0.00	30.221 
22:45	38.8	38.8	38.8	86	35.0	0	0	---	0.00	30.217 
22:50	38.5	38.5	38.5	87	35.0	0	0	---	0.00	30.217 
22:55	38.3	38.3	38.3	88	35.1	0	0	---	0.00	30.217 
23:00	38.0	38.0	38.0	88	34.8	0	0	---	0.00	30.216 
23:05	37.8	37.8	37.8	88	34.6	0	0	---	0.00	30.216 
23:10	37.5	37.5	37.5	88	34.3	0	0	---	0.00	30.216 
23:15	37.3	37.3	37.3	89	34.4	0	0	---	0.00	30.215 
23:20	37.2	37.2	37.2	89	34.3	0	0	---	0.00	30.215 
23:25	36.9	36.9	36.9	89	34.0	0	0	---	0.00	30.215 
23:30	36.6	36.6	36.6	89	33.7	0	0	---	0.00	30.214 
23:35	36.5	36.5	36.5	90	33.9	0	0	---	0.00	30.214 
23:40	36.3	36.3	36.3	90	33.7	0	0	---	0.00	30.214 
23:45	36.0	36.0	36.0	90	33.4	0	0	---	0.00	30.215 
23:50	35.9	35.9	35.9	90	33.3	0	0	---	0.00	30.215 
23:55	35.9	35.9	35.9	91	33.5	0	0	---	0.00	30.215 

CoCoRaHS
IN-AL-39
A2 Web Hosting
Creative Commons License
GoDaddy
Look for:

loaded 2017-12-12 01:56:30 • last modified 2010-11-18 10:43:29
Privacy PolicyDisclaimer
• wx.awcolley.com is powered by PmWiki v.2002016 •
• all content (unless otherwise noted) © 2017 A W Colley